Time;durP1;ratioP1;P1;durP2;ratioP2;P2;SDS_P1;SDS_P2;PMS_P1;PMS_P2;Temp;Humidity;BMP_temperature;BMP_pressure;BME280_temperature;BME280_humidity;BME280_pressure;Samples;Min_cycle;Max_cycle;Signal;HPM_P1;HPM_P2
2022/07/18 00:02:02;;;;;;;4.50;4.20;;;19.50;81.30;;;;;;5053870;28;20520;-75
2022/07/18 00:04:28;;;;;;;4.30;3.90;;;19.60;81.90;;;;;;5053762;28;20392;-75
2022/07/18 00:06:54;;;;;;;4.53;4.10;;;19.50;82.70;;;;;;5051860;28;20420;-75
2022/07/18 00:09:22;;;;;;;4.77;4.17;;;19.50;82.40;;;;;;5033159;28;20450;-75
2022/07/18 00:11:48;;;;;;;4.33;4.03;;;19.50;82.90;;;;;;5054289;28;20502;-75
2022/07/18 00:14:14;;;;;;;5.60;4.20;;;19.40;82.30;;;;;;5052396;28;20482;-75
2022/07/18 00:16:40;;;;;;;5.57;4.40;;;19.40;83.00;;;;;;5036445;28;20416;-74
2022/07/18 00:19:06;;;;;;;4.20;3.90;;;19.40;83.20;;;;;;5052480;28;20640;-75
2022/07/18 00:21:32;;;;;;;4.77;4.47;;;19.40;83.30;;;;;;5056837;28;20478;-75
2022/07/18 00:23:58;;;;;;;4.70;4.30;;;19.40;82.60;;;;;;5073155;28;20833;-75
2022/07/18 00:26:24;;;;;;;5.60;5.20;;;19.40;82.60;;;;;;5072766;28;20420;-74
2022/07/18 00:28:49;;;;;;;9.90;4.93;;;19.40;83.30;;;;;;5070426;28;20238;-75
2022/07/18 00:31:15;;;;;;;5.23;4.83;;;19.30;82.90;;;;;;5072954;28;20193;-75
2022/07/18 00:33:41;;;;;;;4.73;4.30;;;19.30;83.10;;;;;;5074268;28;20177;-75
2022/07/18 00:36:07;;;;;;;5.47;5.00;;;19.30;82.40;;;;;;5073600;28;20179;-75
2022/07/18 00:38:36;;;;;;;5.53;4.70;;;19.30;82.80;;;;;;5070462;28;20169;-75
2022/07/18 00:41:01;;;;;;;5.33;4.83;;;19.30;83.00;;;;;;5070951;28;20629;-75
2022/07/18 00:43:27;;;;;;;5.30;4.90;;;19.30;83.50;;;;;;5073328;28;20427;-75
2022/07/18 00:45:53;;;;;;;5.87;4.67;;;19.30;83.70;;;;;;5073291;28;20704;-74
2022/07/18 00:48:20;;;;;;;4.80;4.40;;;19.20;83.20;;;;;;5073053;28;20177;-75
2022/07/18 00:50:47;;;;;;;4.70;4.40;;;19.20;83.00;;;;;;5073311;28;20181;-75
2022/07/18 00:53:12;;;;;;;4.50;4.10;;;19.20;83.30;;;;;;5073036;28;20712;-75
2022/07/18 00:55:40;;;;;;;4.53;4.03;;;19.10;84.00;;;;;;5073900;28;21021;-75
2022/07/18 00:58:08;;;;;;;5.10;4.70;;;19.10;84.10;;;;;;5071027;28;20511;-75
2022/07/18 01:03:19;;;;;;;4.07;3.77;;;19.10;84.90;;;;;;5073444;28;20403;-75
2022/07/18 01:05:44;;;;;;;4.80;4.40;;;19.10;86.00;;;;;;5074042;28;20457;-74
2022/07/18 01:08:10;;;;;;;4.40;4.10;;;19.00;86.40;;;;;;5070959;28;20447;-74
2022/07/18 01:10:36;;;;;;;3.97;3.77;;;19.00;86.80;;;;;;5073153;28;20189;-75
2022/07/18 01:13:02;;;;;;;4.50;4.13;;;19.00;86.80;;;;;;5071745;28;20201;-75
2022/07/18 01:15:29;;;;;;;4.73;4.43;;;19.00;87.20;;;;;;5073228;28;20215;-74
2022/07/18 01:17:55;;;;;;;4.63;4.20;;;19.00;87.20;;;;;;5070832;28;20195;-75
2022/07/18 01:20:21;;;;;;;3.80;3.50;;;18.90;87.10;;;;;;5070589;28;20412;-74
2022/07/18 01:22:47;;;;;;;4.23;3.93;;;18.90;88.00;;;;;;5052079;28;20440;-75
2022/07/18 01:25:14;;;;;;;4.50;4.10;;;18.90;87.80;;;;;;5018148;28;20193;-75
2022/07/18 01:27:40;;;;;;;4.10;3.70;;;18.90;87.50;;;;;;5053037;28;20277;-75
2022/07/18 01:30:06;;;;;;;4.70;4.30;;;18.80;88.00;;;;;;5050819;28;20514;-75
2022/07/18 01:32:32;;;;;;;4.67;4.33;;;18.80;87.80;;;;;;5053121;28;20202;-75
2022/07/18 01:34:58;;;;;;;4.83;4.53;;;18.70;87.50;;;;;;5052047;28;20424;-75
2022/07/18 01:37:23;;;;;;;4.53;4.23;;;18.70;88.60;;;;;;5052842;28;20626;-75
2022/07/18 01:39:49;;;;;;;5.20;4.80;;;18.70;88.90;;;;;;5051727;28;20235;-75
2022/07/18 01:42:16;;;;;;;4.57;4.17;;;18.70;88.60;;;;;;5034427;28;20178;-75
2022/07/18 01:44:42;;;;;;;4.30;4.00;;;18.70;89.30;;;;;;5052975;28;20185;-74
2022/07/18 01:47:09;;;;;;;4.47;4.20;;;18.70;89.10;;;;;;5051178;28;20497;-75
2022/07/18 01:49:35;;;;;;;5.23;4.37;;;18.70;88.90;;;;;;5051645;28;20440;-75
2022/07/18 01:52:05;;;;;;;4.20;3.90;;;18.70;88.80;;;;;;5051964;28;20460;-75
2022/07/18 01:54:33;;;;;;;3.77;3.57;;;18.60;88.60;;;;;;5051993;28;20833;-75
2022/07/18 01:57:03;;;;;;;3.70;3.47;;;18.60;89.90;;;;;;5049502;28;20464;-75
2022/07/18 01:59:30;;;;;;;4.30;4.00;;;18.60;88.90;;;;;;5052210;28;20482;-75
2022/07/18 02:01:56;;;;;;;4.07;3.77;;;18.50;88.30;;;;;;5052142;28;20412;-75
2022/07/18 02:04:59;;;;;;;4.30;4.00;;;18.50;88.10;;;;;;5049235;28;20455;-75
2022/07/18 02:07:08;;;;;;;3.80;3.60;;;18.50;88.60;;;;;;5049443;28;20333;-75
2022/07/18 02:09:33;;;;;;;3.87;3.57;;;18.50;90.00;;;;;;5029987;28;20855;-74
2022/07/18 02:11:59;;;;;;;4.40;3.90;;;18.50;90.00;;;;;;5031713;28;20585;-75
2022/07/18 02:14:28;;;;;;;3.80;3.60;;;18.50;90.20;;;;;;5032783;28;20189;-75
2022/07/18 02:16:53;;;;;;;4.10;3.80;;;18.50;90.10;;;;;;5051170;28;20668;-75
2022/07/18 02:19:19;;;;;;;5.00;4.50;;;18.50;90.00;;;;;;5051848;28;20412;-75
2022/07/18 02:21:45;;;;;;;4.60;4.30;;;18.50;90.10;;;;;;5052577;28;20658;-75
2022/07/18 02:24:10;;;;;;;5.07;4.67;;;18.50;90.20;;;;;;5051515;28;20182;-75
2022/07/18 02:26:36;;;;;;;5.53;5.13;;;18.40;89.90;;;;;;5051413;28;20178;-75
2022/07/18 02:29:02;;;;;;;6.63;4.87;;;18.40;90.10;;;;;;5050543;28;20193;-75
2022/07/18 02:31:27;;;;;;;5.43;4.80;;;18.40;90.20;;;;;;5051361;28;20209;-75
2022/07/18 02:33:53;;;;;;;4.83;4.43;;;18.40;90.20;;;;;;5051883;28;20416;-75
2022/07/18 02:36:19;;;;;;;5.00;4.60;;;18.40;90.30;;;;;;5050429;28;20189;-74
2022/07/18 02:38:45;;;;;;;4.83;4.43;;;18.40;90.30;;;;;;5051256;28;20676;-75
2022/07/18 02:41:10;;;;;;;4.87;4.47;;;18.40;90.20;;;;;;5033155;28;20728;-75
2022/07/18 02:43:36;;;;;;;7.30;5.10;;;18.40;90.20;;;;;;5052033;28;20185;-75
2022/07/18 02:46:03;;;;;;;4.87;4.57;;;18.30;90.20;;;;;;5050022;28;20216;-75
2022/07/18 02:48:28;;;;;;;5.20;4.70;;;18.30;90.10;;;;;;5051016;28;20189;-75
2022/07/18 02:50:54;;;;;;;5.50;5.10;;;18.30;90.30;;;;;;5032934;28;20443;-75
2022/07/18 02:53:23;;;;;;;4.90;4.47;;;18.30;90.60;;;;;;5033376;28;20212;-75
2022/07/18 02:55:50;;;;;;;4.77;4.40;;;18.20;90.60;;;;;;5051293;28;20600;-75
2022/07/18 02:58:16;;;;;;;4.27;3.87;;;18.20;90.40;;;;;;5050550;28;20432;-75
2022/07/18 03:00:45;;;;;;;5.07;4.57;;;18.20;90.60;;;;;;5049871;28;20784;-73
2022/07/18 03:03:11;;;;;;;4.67;4.27;;;18.20;90.60;;;;;;5051079;28;20415;-73
2022/07/18 03:05:36;;;;;;;4.93;4.40;;;18.20;91.40;;;;;;5051943;28;20416;-73
2022/07/18 03:08:02;;;;;;;4.23;3.83;;;18.10;90.90;;;;;;5030685;28;20185;-73
2022/07/18 03:10:28;;;;;;;4.83;4.43;;;18.10;91.30;;;;;;5046169;28;20190;-72
2022/07/18 03:12:54;;;;;;;4.73;4.30;;;18.10;91.20;;;;;;5051791;28;20463;-72
2022/07/18 03:15:19;;;;;;;4.23;3.90;;;18.10;91.40;;;;;;5050485;28;20314;-72
2022/07/18 03:17:45;;;;;;;4.20;3.90;;;18.10;91.30;;;;;;5051210;28;20189;-72
2022/07/18 03:20:11;;;;;;;4.57;4.27;;;18.10;91.30;;;;;;5050851;28;20618;-72
2022/07/18 03:22:40;;;;;;;4.70;4.37;;;18.10;91.40;;;;;;5051022;28;20223;-73
2022/07/18 03:25:06;;;;;;;4.20;3.90;;;18.00;91.30;;;;;;5050673;28;20513;-72
2022/07/18 03:27:32;;;;;;;4.53;4.13;;;18.00;91.20;;;;;;5050622;28;20180;-73
2022/07/18 03:29:57;;;;;;;3.63;3.43;;;18.00;91.40;;;;;;5051661;28;20416;-73
2022/07/18 03:32:23;;;;;;;4.40;4.10;;;18.00;91.30;;;;;;5033121;28;20319;-73
2022/07/18 03:34:49;;;;;;;3.77;3.57;;;18.00;91.40;;;;;;5033865;28;20227;-73
2022/07/18 03:37:14;;;;;;;4.47;4.10;;;18.00;91.20;;;;;;5049511;28;20182;-73
2022/07/18 03:39:40;;;;;;;5.20;4.73;;;18.00;91.10;;;;;;5036488;28;20208;-73
2022/07/18 03:42:06;;;;;;;8.50;5.07;;;18.00;91.30;;;;;;5036723;28;20178;-73
2022/07/18 03:44:31;;;;;;;5.87;5.47;;;17.90;91.20;;;;;;5054553;28;20236;-70
2022/07/18 03:46:57;;;;;;;4.47;4.07;;;17.90;91.40;;;;;;5054352;28;20181;-75
2022/07/18 03:49:23;;;;;;;5.40;4.90;;;17.90;91.40;;;;;;5053414;28;20691;-75
2022/07/18 03:51:48;;;;;;;8.03;7.63;;;17.90;91.40;;;;;;5054762;28;20304;-75
2022/07/18 03:54:14;;;;;;;6.67;6.10;;;17.90;91.50;;;;;;5054433;28;20269;-75
2022/07/18 03:56:40;;;;;;;4.83;4.30;;;17.90;91.80;;;;;;5054528;28;20215;-75
2022/07/18 03:59:06;;;;;;;11.63;4.83;;;17.90;91.70;;;;;;5051291;28;20533;-75
2022/07/18 04:01:32;;;;;;;5.67;4.97;;;17.90;91.70;;;;;;5055056;28;20308;-75
2022/07/18 04:03:58;;;;;;;6.20;5.80;;;17.90;91.90;;;;;;5055180;28;20883;-75
2022/07/18 04:06:23;;;;;;;5.47;4.90;;;17.90;92.00;;;;;;5054090;28;20281;-75
2022/07/18 04:08:49;;;;;;;6.50;6.00;;;17.90;91.90;;;;;;5037100;28;20169;-75
2022/07/18 04:11:15;;;;;;;5.70;4.50;;;17.90;92.00;;;;;;5034989;28;20201;-75
2022/07/18 04:13:40;;;;;;;3.80;3.50;;;17.90;92.00;;;;;;5054703;28;20182;-75
2022/07/18 04:16:06;;;;;;;4.10;3.80;;;17.90;92.00;;;;;;5053052;28;20190;-75
2022/07/18 04:18:32;;;;;;;3.80;3.50;;;17.90;92.20;;;;;;5054519;28;20645;-75
2022/07/18 04:20:58;;;;;;;4.97;4.63;;;17.90;92.30;;;;;;5053557;28;20472;-75
2022/07/18 04:23:23;;;;;;;5.13;4.63;;;17.90;92.60;;;;;;5053255;28;20185;-75
2022/07/18 04:25:49;;;;;;;5.90;4.87;;;17.90;92.60;;;;;;5054277;28;20206;-75
2022/07/18 04:28:15;;;;;;;4.83;4.43;;;17.90;92.30;;;;;;5035614;28;20197;-74
2022/07/18 04:30:42;;;;;;;7.53;6.90;;;17.90;92.40;;;;;;5052712;28;20181;-74
2022/07/18 04:33:10;;;;;;;13.83;4.03;;;17.90;92.30;;;;;;5053382;28;20460;-75
2022/07/18 04:35:37;;;;;;;4.70;3.43;;;17.90;92.50;;;;;;5053468;28;20440;-75
2022/07/18 04:38:04;;;;;;;4.20;3.80;;;17.90;92.80;;;;;;5054011;28;20412;-75
2022/07/18 04:40:31;;;;;;;5.67;5.23;;;17.90;93.30;;;;;;5052148;28;20435;-76
2022/07/18 04:42:56;;;;;;;4.80;4.30;;;17.90;92.60;;;;;;5053242;28;20440;-75
2022/07/18 04:45:23;;;;;;;7.63;4.40;;;18.00;92.70;;;;;;5035511;28;20471;-75
2022/07/18 04:47:53;;;;;;;4.63;4.00;;;18.00;92.90;;;;;;5053108;28;20235;-75
2022/07/18 04:50:19;;;;;;;5.13;4.70;;;18.00;93.20;;;;;;5052053;28;20432;-75
2022/07/18 04:52:46;;;;;;;6.50;6.10;;;18.10;93.60;;;;;;5053936;28;20468;-75
2022/07/18 04:55:14;;;;;;;5.97;5.43;;;18.10;93.60;;;;;;5035232;28;20826;-75
2022/07/18 04:57:40;;;;;;;5.80;5.20;;;18.10;93.40;;;;;;5019550;28;20462;-75
2022/07/18 05:00:09;;;;;;;8.90;5.57;;;18.10;93.30;;;;;;5050716;28;20432;-75
2022/07/18 05:02:38;;;;;;;4.83;4.43;;;18.10;93.20;;;;;;5050639;28;20431;-75
2022/07/18 05:05:04;;;;;;;5.30;4.30;;;18.10;93.10;;;;;;5053680;28;20404;-75
2022/07/18 05:07:30;;;;;;;10.73;4.30;;;18.20;92.90;;;;;;5051887;28;20574;-75
2022/07/18 05:09:55;;;;;;;6.03;5.53;;;18.20;92.50;;;;;;5053750;28;20434;-75
2022/07/18 05:12:23;;;;;;;7.00;4.70;;;18.20;92.50;;;;;;5035127;28;20217;-75
2022/07/18 05:14:50;;;;;;;6.90;4.70;;;18.30;92.40;;;;;;5053853;28;20174;-75
2022/07/18 05:17:16;;;;;;;8.00;7.40;;;18.40;92.30;;;;;;5049683;28;20912;-75
2022/07/18 05:19:42;;;;;;;7.40;5.40;;;18.40;91.90;;;;;;5052990;28;20957;-74
2022/07/18 05:22:07;;;;;;;7.57;6.93;;;18.50;91.70;;;;;;5054409;28;20557;-75
2022/07/18 05:24:33;;;;;;;4.60;4.03;;;18.50;92.00;;;;;;5052140;28;20219;-75
2022/07/18 05:26:59;;;;;;;5.80;4.87;;;18.50;92.30;;;;;;5045208;28;20208;-75
2022/07/18 05:29:24;;;;;;;7.77;7.07;;;18.60;92.70;;;;;;5052383;28;20192;-75
2022/07/18 05:31:50;;;;;;;5.27;4.83;;;18.60;92.90;;;;;;5056341;28;20236;-75
2022/07/18 05:34:16;;;;;;;8.10;5.90;;;18.70;92.60;;;;;;5051705;28;20531;-75
2022/07/18 05:36:41;;;;;;;10.37;8.80;;;18.70;92.20;;;;;;5045095;28;20228;-75
2022/07/18 05:39:09;;;;;;;8.83;6.03;;;18.70;91.50;;;;;;5034343;28;20232;-73
2022/07/18 05:41:35;;;;;;;7.23;5.53;;;18.70;91.30;;;;;;5060347;28;20267;-73
2022/07/18 05:44:00;;;;;;;8.57;7.87;;;18.80;91.80;;;;;;5055281;28;20559;-73
2022/07/18 05:46:26;;;;;;;8.07;5.17;;;19.00;93.00;;;;;;5033752;28;20440;-66
2022/07/18 05:48:53;;;;;;;5.90;5.23;;;19.20;91.60;;;;;;5060635;28;20272;-65
2022/07/18 05:51:20;;;;;;;5.63;5.10;;;19.20;90.20;;;;;;5052410;28;20178;-64
2022/07/18 05:53:47;;;;;;;5.53;5.13;;;19.30;90.30;;;;;;5068621;28;20492;-67
2022/07/18 05:56:12;;;;;;;6.03;5.50;;;19.20;90.20;;;;;;5069269;28;20524;-67
2022/07/18 05:58:38;;;;;;;5.67;5.17;;;19.20;90.30;;;;;;5056157;28;20859;-67
2022/07/18 06:01:04;;;;;;;5.77;5.33;;;19.20;90.00;;;;;;5064937;28;20181;-67
2022/07/18 06:03:29;;;;;;;5.90;5.00;;;19.20;90.00;;;;;;5066646;28;20205;-67
2022/07/18 06:05:55;;;;;;;5.33;4.93;;;19.20;90.30;;;;;;5035161;28;20199;-67
2022/07/18 06:08:21;;;;;;;5.97;5.47;;;19.20;90.70;;;;;;5055089;28;20273;-67
2022/07/18 06:10:47;;;;;;;7.37;6.23;;;19.20;91.10;;;;;;5051708;28;20182;-65
2022/07/18 06:13:12;;;;;;;5.40;5.00;;;19.30;91.80;;;;;;5058195;28;20208;-66
2022/07/18 06:15:38;;;;;;;5.93;5.23;;;19.30;92.20;;;;;;5059437;28;20275;-66
2022/07/18 06:18:04;;;;;;;5.73;5.00;;;19.30;91.90;;;;;;5062133;28;20261;-66
2022/07/18 06:20:30;;;;;;;7.10;6.57;;;19.30;91.50;;;;;;5052944;28;20359;-66
2022/07/18 06:22:55;;;;;;;7.77;5.43;;;19.40;91.80;;;;;;5051222;28;20654;-65
2022/07/18 06:25:21;;;;;;;9.80;7.37;;;19.40;91.80;;;;;;5050074;28;20196;-66
2022/07/18 06:27:47;;;;;;;7.90;7.20;;;19.50;91.90;;;;;;5049670;28;20627;-66
2022/07/18 06:30:12;;;;;;;4.57;4.27;;;19.50;91.50;;;;;;5048453;28;20189;-69
2022/07/18 06:32:39;;;;;;;4.10;3.70;;;19.60;91.30;;;;;;5049241;28;20201;-66
2022/07/18 06:35:06;;;;;;;9.27;5.13;;;19.60;90.80;;;;;;5046869;28;20432;-66
2022/07/18 06:37:31;;;;;;;7.60;4.63;;;19.70;90.60;;;;;;5047938;28;20460;-66
2022/07/18 06:39:57;;;;;;;5.13;4.63;;;19.80;90.80;;;;;;5047219;28;20461;-66
2022/07/18 06:42:23;;;;;;;6.97;4.90;;;19.80;91.00;;;;;;5048449;28;20194;-66
2022/07/18 06:44:48;;;;;;;6.73;4.13;;;19.90;90.90;;;;;;5049935;28;20247;-66
2022/07/18 06:47:14;;;;;;;5.57;4.87;;;20.00;91.50;;;;;;5046106;28;20189;-66
2022/07/18 06:49:40;;;;;;;6.20;5.10;;;20.10;91.30;;;;;;5050357;28;20182;-66
2022/07/18 06:52:06;;;;;;;4.80;4.30;;;20.20;90.80;;;;;;5051387;28;20649;-67
2022/07/18 06:54:33;;;;;;;4.90;3.70;;;20.30;90.70;;;;;;5031852;28;20185;-66
2022/07/18 06:57:03;;;;;;;4.33;4.03;;;20.30;90.20;;;;;;5050822;28;20436;-66
2022/07/18 06:59:28;;;;;;;5.37;4.97;;;20.40;90.10;;;;;;5040351;28;20436;-66
2022/07/18 07:01:54;;;;;;;4.60;4.30;;;20.60;87.70;;;;;;5033696;28;20439;-65
2022/07/18 07:04:22;;;;;;;5.70;5.20;;;20.70;87.70;;;;;;5048712;28;20715;-66
2022/07/18 07:06:48;;;;;;;6.30;5.80;;;20.80;89.50;;;;;;5049902;28;20652;-66
2022/07/18 07:09:14;;;;;;;5.27;3.87;;;20.90;89.20;;;;;;5044873;28;20431;-66
2022/07/18 07:11:39;;;;;;;7.13;6.50;;;21.00;88.00;;;;;;5041045;28;20316;-66
2022/07/18 07:14:05;;;;;;;8.77;3.53;;;21.20;87.70;;;;;;5051583;28;20595;-67
2022/07/18 07:16:31;;;;;;;5.43;4.37;;;21.30;88.00;;;;;;5049746;28;20488;-66
2022/07/18 07:18:57;;;;;;;7.23;6.53;;;21.40;86.30;;;;;;5054234;28;20189;-66
2022/07/18 07:21:22;;;;;;;6.30;4.73;;;21.60;85.30;;;;;;5054255;28;20639;-66
2022/07/18 07:23:48;;;;;;;7.70;4.20;;;21.70;84.10;;;;;;5055987;28;20223;-66
2022/07/18 07:26:14;;;;;;;10.10;5.47;;;21.80;84.60;;;;;;5024445;28;20638;-66
2022/07/18 07:28:39;;;;;;;7.80;6.23;;;22.00;86.40;;;;;;5047459;28;20232;-66
2022/07/18 07:31:05;;;;;;;7.07;4.20;;;22.10;85.60;;;;;;5053107;28;20197;-66
2022/07/18 07:33:31;;;;;;;9.30;4.90;;;22.30;83.40;;;;;;5052639;28;20201;-67
2022/07/18 07:35:57;;;;;;;6.10;5.50;;;22.40;83.80;;;;;;5055032;28;20833;-65
2022/07/18 07:38:27;;;;;;;8.00;5.20;;;22.60;84.50;;;;;;5035980;28;20184;-66
2022/07/18 07:40:54;;;;;;;6.57;4.37;;;22.80;88.10;;;;;;5054190;28;20264;-66
2022/07/18 07:43:20;;;;;;;5.77;4.73;;;23.00;89.50;;;;;;5054068;28;20436;-66
2022/07/18 07:45:48;;;;;;;4.43;4.10;;;23.20;85.00;;;;;;5053592;28;20523;-67
2022/07/18 07:48:15;;;;;;;4.30;3.97;;;23.40;81.40;;;;;;5054570;28;20438;-68
2022/07/18 07:50:41;;;;;;;3.90;3.70;;;23.70;83.50;;;;;;5051694;28;20442;-69
2022/07/18 07:53:07;;;;;;;5.33;4.00;;;23.90;81.60;;;;;;5054074;28;20478;-66
2022/07/18 07:55:33;;;;;;;4.70;4.20;;;24.10;83.80;;;;;;5053282;28;20181;-66
2022/07/18 07:57:59;;;;;;;4.20;3.90;;;24.30;83.80;;;;;;5054162;28;20419;-66
2022/07/18 08:00:26;;;;;;;3.53;3.33;;;24.50;82.80;;;;;;5035386;28;20185;-66
2022/07/18 08:03:03;;;;;;;3.83;3.53;;;24.70;79.70;;;;;;5054079;28;20432;-67
2022/07/18 08:05:31;;;;;;;3.70;3.40;;;24.80;75.50;;;;;;5054964;28;20400;-66
2022/07/18 08:07:58;;;;;;;6.40;5.17;;;24.90;75.00;;;;;;5054445;28;20412;-68
2022/07/18 08:10:24;;;;;;;4.80;4.30;;;25.10;79.00;;;;;;5052297;28;20428;-66
2022/07/18 08:12:50;;;;;;;5.33;4.60;;;25.30;77.10;;;;;;5053847;28;20471;-66
2022/07/18 08:15:16;;;;;;;5.97;4.03;;;25.40;77.50;;;;;;5054474;28;20188;-67
2022/07/18 08:17:42;;;;;;;7.00;6.50;;;25.50;76.30;;;;;;5055100;28;20408;-67
2022/07/18 08:20:16;;;;;;;3.43;3.23;;;25.70;75.50;;;;;;5054878;28;20182;-66
2022/07/18 08:23:05;;;;;;;4.50;3.80;;;25.90;74.20;;;;;;5053713;28;20767;-66
2022/07/18 08:25:35;;;;;;;5.17;4.77;;;26.00;74.00;;;;;;5047590;28;20488;-66
2022/07/18 08:28:01;;;;;;;2.97;2.77;;;26.20;73.80;;;;;;5025454;28;20436;-66
2022/07/18 08:30:29;;;;;;;3.13;2.93;;;26.30;73.10;;;;;;5054057;28;20428;-66
2022/07/18 08:32:55;;;;;;;5.10;4.80;;;26.50;66.90;;;;;;5017236;28;20947;-69
2022/07/18 08:35:21;;;;;;;5.10;3.40;;;26.60;66.30;;;;;;5052523;28;20936;-66
2022/07/18 08:37:47;;;;;;;3.13;2.70;;;26.70;65.30;;;;;;5048983;28;20436;-66
2022/07/18 08:40:13;;;;;;;4.03;3.10;;;26.80;64.00;;;;;;5050032;28;20433;-67
2022/07/18 08:42:39;;;;;;;2.93;2.43;;;27.00;64.70;;;;;;5015732;28;20233;-66
2022/07/18 08:45:06;;;;;;;3.80;3.50;;;27.00;64.20;;;;;;5049766;28;20758;-65
2022/07/18 08:47:32;;;;;;;4.03;3.53;;;27.10;62.20;;;;;;5050167;28;20471;-66
2022/07/18 08:49:59;;;;;;;3.03;2.83;;;27.30;59.80;;;;;;5052277;28;20737;-66
2022/07/18 08:52:28;;;;;;;3.60;3.30;;;27.40;57.40;;;;;;5050714;28;20475;-66
2022/07/18 08:54:55;;;;;;;2.73;2.50;;;27.50;57.10;;;;;;5051239;28;20922;-66
2022/07/18 08:57:22;;;;;;;2.17;2.07;;;27.50;57.10;;;;;;5053346;28;20435;-66
2022/07/18 08:59:47;;;;;;;2.27;2.07;;;27.70;56.00;;;;;;5054516;28;20416;-66
2022/07/18 09:02:13;;;;;;;3.40;3.20;;;27.80;55.90;;;;;;5052733;28;20428;-66
2022/07/18 09:04:44;;;;;;;3.70;3.50;;;27.90;56.30;;;;;;5053325;28;20304;-66
2022/07/18 09:07:23;;;;;;;4.00;3.80;;;28.10;55.20;;;;;;5054369;28;20160;-66
2022/07/18 09:09:54;;;;;;;5.13;4.60;;;28.20;54.20;;;;;;5054168;28;20522;-66
2022/07/18 09:12:21;;;;;;;4.20;3.90;;;28.30;53.70;;;;;;5049713;28;20513;-68
2022/07/18 09:14:47;;;;;;;4.20;3.90;;;28.40;52.50;;;;;;5053610;28;20498;-66
2022/07/18 09:17:28;;;;;;;3.37;3.20;;;28.50;52.10;;;;;;5054005;28;20407;-66
2022/07/18 09:20:04;;;;;;;4.27;4.07;;;28.60;51.70;;;;;;5054108;28;20411;-66
2022/07/18 09:22:35;;;;;;;4.40;4.20;;;28.60;47.30;;;;;;5052750;28;20522;-66
2022/07/18 09:25:04;;;;;;;5.20;5.00;;;28.70;50.40;;;;;;5036149;28;20416;-66
2022/07/18 09:27:38;;;;;;;4.13;3.73;;;28.80;52.00;;;;;;5053187;28;20397;-66
2022/07/18 09:30:22;;;;;;;4.97;4.63;;;29.00;49.90;;;;;;5053559;28;20902;-66
2022/07/18 09:33:03;;;;;;;5.27;3.03;;;29.10;49.90;;;;;;5052659;28;20460;-66
2022/07/18 09:35:42;;;;;;;5.37;4.20;;;29.10;48.10;;;;;;5053032;28;20475;-67
2022/07/18 09:38:10;;;;;;;2.90;2.70;;;29.30;49.90;;;;;;5053747;28;20392;-66
2022/07/18 09:40:37;;;;;;;2.90;2.70;;;29.30;46.90;;;;;;5052137;28;20431;-67
2022/07/18 09:43:09;;;;;;;2.53;2.20;;;29.30;47.00;;;;;;5053777;28;20807;-66
2022/07/18 09:45:37;;;;;;;3.50;3.10;;;29.40;46.50;;;;;;5052994;28;20750;-66
2022/07/18 09:48:07;;;;;;;3.07;2.97;;;29.50;48.20;;;;;;5053582;28;20401;-66
2022/07/18 09:50:41;;;;;;;2.80;2.70;;;29.70;48.10;;;;;;5051817;28;20427;-66
2022/07/18 09:53:14;;;;;;;6.60;6.20;;;29.80;47.80;;;;;;5053166;28;20467;-66
2022/07/18 09:56:00;;;;;;;3.27;3.07;;;29.90;48.80;;;;;;5034125;28;20408;-66
2022/07/18 09:58:55;;;;;;;4.40;4.10;;;30.00;46.80;;;;;;5051780;28;20450;-67
2022/07/18 10:01:23;;;;;;;3.50;3.30;;;30.10;44.80;;;;;;5041324;28;20416;-70
2022/07/18 10:03:49;;;;;;;4.03;3.83;;;30.20;47.70;;;;;;5051792;28;20527;-66
2022/07/18 10:06:16;;;;;;;4.07;3.80;;;30.30;45.40;;;;;;5052437;28;20510;-66
2022/07/18 10:08:42;;;;;;;3.50;3.30;;;30.40;47.40;;;;;;5052582;28;21161;-67
2022/07/18 10:11:08;;;;;;;3.93;3.70;;;30.50;46.30;;;;;;5052663;28;20891;-66
2022/07/18 10:13:36;;;;;;;5.37;5.07;;;30.50;46.30;;;;;;5051325;28;20633;-67
2022/07/18 10:16:02;;;;;;;4.40;4.20;;;30.50;44.60;;;;;;5052879;28;20884;-67
2022/07/18 10:18:30;;;;;;;6.03;5.73;;;30.60;44.60;;;;;;5051928;28;20811;-67
2022/07/18 10:21:13;;;;;;;4.83;3.33;;;30.50;43.20;;;;;;5052459;28;20452;-66
2022/07/18 10:23:40;;;;;;;6.80;6.40;;;30.60;42.90;;;;;;5051383;28;20436;-67
2022/07/18 10:26:24;;;;;;;4.30;4.00;;;30.50;42.90;;;;;;5052416;28;20431;-66
2022/07/18 10:28:58;;;;;;;6.10;5.80;;;30.70;44.00;;;;;;5052925;28;20389;-67
2022/07/18 10:31:31;;;;;;;4.50;4.30;;;30.90;43.30;;;;;;5052095;28;20419;-67
2022/07/18 10:34:09;;;;;;;5.90;5.60;;;30.90;43.20;;;;;;5051762;28;20409;-67
2022/07/18 10:36:36;;;;;;;3.57;3.37;;;30.90;42.60;;;;;;5051352;28;20416;-67
2022/07/18 10:39:19;;;;;;;4.10;3.90;;;30.90;44.00;;;;;;5052660;28;20443;-66
2022/07/18 10:41:51;;;;;;;4.53;4.33;;;31.00;41.80;;;;;;5052059;28;20415;-67
2022/07/18 10:44:29;;;;;;;5.27;5.07;;;31.10;43.80;;;;;;5052568;28;20412;-67
2022/07/18 10:47:12;;;;;;;5.10;4.70;;;31.20;43.40;;;;;;5052376;28;20453;-67
2022/07/18 10:49:51;;;;;;;4.03;3.73;;;31.30;43.30;;;;;;5051136;28;20434;-67
2022/07/18 10:52:26;;;;;;;4.47;4.27;;;31.40;42.10;;;;;;5052484;28;20448;-67
2022/07/18 10:55:16;;;;;;;4.93;4.40;;;31.50;43.10;;;;;;5052527;28;20718;-66
2022/07/18 10:57:50;;;;;;;3.70;3.50;;;31.50;41.80;;;;;;5051614;28;20404;-67
2022/07/18 11:00:23;;;;;;;4.20;3.50;;;31.40;40.50;;;;;;5052448;28;20948;-67
2022/07/18 11:03:10;;;;;;;3.67;3.30;;;31.50;42.70;;;;;;5051089;28;20428;-66
2022/07/18 11:05:49;;;;;;;6.33;5.93;;;31.60;43.00;;;;;;5051640;28;20388;-67
2022/07/18 11:08:19;;;;;;;5.70;5.40;;;31.70;42.70;;;;;;5052224;28;20400;-66
2022/07/18 11:10:46;;;;;;;3.30;3.10;;;31.80;41.90;;;;;;5051832;28;20408;-67
2022/07/18 11:13:30;;;;;;;6.30;6.00;;;31.80;42.80;;;;;;5052332;28;20490;-67
2022/07/18 11:16:13;;;;;;;3.97;3.70;;;32.00;43.30;;;;;;5052242;28;20408;-64
2022/07/18 11:18:39;;;;;;;6.23;5.93;;;32.10;43.30;;;;;;5050590;28;20428;-64
2022/07/18 11:21:24;;;;;;;4.33;4.13;;;32.20;43.00;;;;;;5052179;28;20452;-64
2022/07/18 11:23:54;;;;;;;4.03;3.77;;;32.30;44.80;;;;;;5051615;28;20316;-64
2022/07/18 11:26:22;;;;;;;3.50;3.37;;;32.30;42.60;;;;;;5052330;28;20400;-64
2022/07/18 11:28:55;;;;;;;4.00;3.80;;;32.40;41.50;;;;;;5051466;28;20415;-64
2022/07/18 11:31:21;;;;;;;5.70;5.40;;;32.40;42.70;;;;;;5052069;28;20405;-64
2022/07/18 11:33:49;;;;;;;4.40;4.10;;;32.40;42.10;;;;;;5051454;28;20546;-64
2022/07/18 11:36:27;;;;;;;4.60;4.30;;;32.40;41.20;;;;;;5050678;28;20177;-65
2022/07/18 11:39:04;;;;;;;4.10;3.90;;;32.50;41.10;;;;;;5051546;28;20530;-65
2022/07/18 11:41:30;;;;;;;5.70;5.40;;;32.50;41.10;;;;;;5050606;28;20420;-65
2022/07/18 11:43:56;;;;;;;4.27;3.97;;;32.60;41.90;;;;;;5051691;28;20907;-65
2022/07/18 11:46:25;;;;;;;4.37;4.17;;;32.60;41.70;;;;;;5052024;28;20408;-65
2022/07/18 11:48:59;;;;;;;5.60;5.30;;;32.70;43.10;;;;;;5033574;28;20408;-65
2022/07/18 11:51:32;;;;;;;5.80;5.50;;;32.70;41.20;;;;;;5051920;28;20411;-65
2022/07/18 11:53:58;;;;;;;4.27;4.07;;;32.70;41.40;;;;;;5051752;28;20408;-64
2022/07/18 11:56:24;;;;;;;5.83;4.20;;;32.70;40.40;;;;;;5051979;28;20896;-65
2022/07/18 11:58:50;;;;;;;3.80;3.60;;;32.70;41.10;;;;;;5050171;28;20200;-65
2022/07/18 12:01:16;;;;;;;4.30;4.10;;;32.70;42.30;;;;;;5054846;28;20170;-65
2022/07/18 12:03:45;;;;;;;4.33;4.13;;;32.70;41.10;;;;;;5054509;28;20426;-65
2022/07/18 12:06:13;;;;;;;4.30;4.10;;;32.70;41.40;;;;;;5055056;28;20408;-65
2022/07/18 12:08:47;;;;;;;5.40;5.10;;;32.70;41.10;;;;;;5054634;28;20466;-65
2022/07/18 12:11:34;;;;;;;5.33;5.03;;;32.60;40.30;;;;;;5055411;28;20393;-64
2022/07/18 12:14:12;;;;;;;5.60;5.30;;;32.60;41.50;;;;;;5055215;28;20389;-65
2022/07/18 12:16:40;;;;;;;4.63;4.33;;;32.60;40.50;;;;;;5036812;28;20503;-65
2022/07/18 12:19:08;;;;;;;4.80;4.50;;;32.60;41.50;;;;;;5053423;28;20992;-66
2022/07/18 12:21:49;;;;;;;5.20;4.90;;;32.60;42.70;;;;;;5040968;28;20811;-65
2022/07/18 12:24:47;;;;;;;4.80;4.43;;;32.70;42.50;;;;;;5074989;28;20813;-65
2022/07/18 12:27:19;;;;;;;4.50;4.30;;;32.70;43.20;;;;;;5075013;28;20411;-65
2022/07/18 12:30:08;;;;;;;5.30;5.00;;;32.80;43.10;;;;;;5074377;28;20502;-65
2022/07/18 12:32:37;;;;;;;4.00;3.80;;;32.90;43.60;;;;;;5074344;28;20465;-65
2022/07/18 12:35:07;;;;;;;4.50;4.30;;;33.00;41.50;;;;;;5074662;28;20895;-65
2022/07/18 12:37:33;;;;;;;4.47;4.27;;;32.90;41.00;;;;;;5073309;28;20435;-66
2022/07/18 12:40:05;;;;;;;5.60;5.30;;;32.90;41.20;;;;;;5073794;28;20455;-65
2022/07/18 12:42:39;;;;;;;5.43;5.23;;;32.90;42.60;;;;;;5074771;28;20396;-68
2022/07/18 12:45:06;;;;;;;4.63;4.43;;;32.90;42.20;;;;;;5074883;28;20789;-65
2022/07/18 12:47:32;;;;;;;5.87;5.27;;;33.00;42.10;;;;;;5074326;28;20436;-66
2022/07/18 12:49:59;;;;;;;6.77;6.37;;;33.00;42.20;;;;;;5074827;28;20411;-65
2022/07/18 12:52:25;;;;;;;4.07;3.87;;;33.10;42.40;;;;;;5074395;28;20491;-65
2022/07/18 12:54:51;;;;;;;3.60;3.33;;;33.10;40.10;;;;;;5073856;28;20470;-65